Time;durP1;ratioP1;P1;durP2;ratioP2;P2;SDS_P1;SDS_P2;PMS_P1;PMS_P2;Temp;Humidity;BMP_temperature;BMP_pressure;BME280_temperature;BME280_humidity;BME280_pressure;Samples;Min_cycle;Max_cycle;Signal;HPM_P1;HPM_P2
2023/02/10 00:02:23;;;;;;;;;119.50;104.25;;;;;6.86;47.14;103267.28;4958374;28;46251;-69
2023/02/10 00:04:50;;;;;;;;;110.25;102.00;;;;;6.85;47.35;103265.50;4961406;28;45279;-68
2023/02/10 00:07:17;;;;;;;;;113.75;100.75;;;;;6.83;47.44;103263.72;4943590;28;45326;-69
2023/02/10 00:09:42;;;;;;;;;124.75;106.00;;;;;6.82;47.44;103272.38;4961754;28;45361;-70
2023/02/10 00:12:09;;;;;;;;;116.25;106.75;;;;;6.83;47.53;103278.50;4960951;28;45207;-70
2023/02/10 00:14:35;;;;;;;;;129.50;112.00;;;;;6.81;47.34;103273.19;4961280;28;45274;-70
2023/02/10 00:17:00;;;;;;;;;122.50;105.50;;;;;6.79;47.54;103268.75;4961108;28;45444;-70
2023/02/10 00:19:27;;;;;;;;;104.75;95.25;;;;;6.80;47.42;103270.53;4961160;28;45623;-70
2023/02/10 00:21:53;;;;;;;;;111.00;99.75;;;;;6.77;47.56;103262.56;4943432;28;48151;-70
2023/02/10 00:24:20;;;;;;;;;111.75;102.50;;;;;6.74;47.64;103249.34;4961180;28;45310;-70
2023/02/10 00:26:46;;;;;;;;;117.25;102.25;;;;;6.73;47.67;103251.09;4961201;28;45425;-69
2023/02/10 00:29:12;;;;;;;;;104.75;89.50;;;;;6.71;47.87;103257.97;4960878;28;45312;-70
2023/02/10 00:31:37;;;;;;;;;122.00;106.00;;;;;6.72;47.86;103266.72;4943523;28;47357;-69
2023/02/10 00:34:02;;;;;;;;;118.50;105.25;;;;;6.69;47.70;103263.97;4961035;28;45402;-70
2023/02/10 00:36:28;;;;;;;;;124.75;112.75;;;;;6.67;47.85;103258.69;4960788;28;45228;-69
2023/02/10 00:38:53;;;;;;;;;112.75;106.50;;;;;6.63;47.61;103256.75;4961023;28;45231;-70
2023/02/10 00:41:22;;;;;;;;;120.75;108.00;;;;;6.66;47.99;103270.81;4959430;28;46950;-70
2023/02/10 00:43:48;;;;;;;;;124.50;109.75;;;;;6.67;48.03;103272.63;4960969;28;45497;-70
2023/02/10 00:46:16;;;;;;;;;119.25;106.50;;;;;6.65;48.10;103262.94;4960845;28;45710;-70
2023/02/10 00:48:41;;;;;;;;;119.75;105.00;;;;;6.63;47.97;103251.53;4960828;28;45480;-70
2023/02/10 00:51:07;;;;;;;;;114.50;100.75;;;;;6.66;48.03;103254.25;4960456;28;45351;-70
2023/02/10 00:53:32;;;;;;;;;121.00;107.75;;;;;6.62;48.08;103250.63;4960877;28;45395;-70
2023/02/10 00:55:58;;;;;;;;;116.50;105.00;;;;;6.65;47.90;103252.47;4960708;28;45222;-70
2023/02/10 00:58:24;;;;;;;;;103.50;95.50;;;;;6.65;47.97;103253.38;4960876;28;45402;-69
2023/02/10 01:00:49;;;;;;;;;112.25;102.00;;;;;6.58;48.05;103245.19;4943213;28;47878;-70
2023/02/10 01:03:15;;;;;;;;;119.50;102.25;;;;;6.65;48.25;103260.31;4960788;28;45240;-70
2023/02/10 01:05:40;;;;;;;;;117.75;101.75;;;;;6.65;48.07;103262.94;4959192;28;45329;-70
2023/02/10 01:08:06;;;;;;;;;120.75;99.00;;;;;6.66;48.04;103259.50;4960607;28;45527;-69
2023/02/10 01:10:34;;;;;;;;;114.25;100.75;;;;;6.69;48.12;103264.84;4960509;28;46269;-69
2023/02/10 01:13:01;;;;;;;;;116.25;104.75;;;;;6.69;48.21;103264.84;4959264;28;45335;-70
2023/02/10 01:15:26;;;;;;;;;111.25;99.75;;;;;6.70;48.31;103266.63;4960501;28;45228;-70
2023/02/10 01:17:52;;;;;;;;;117.75;101.50;;;;;6.68;48.27;103260.47;4958883;28;45569;-69
2023/02/10 01:20:18;;;;;;;;;116.50;99.75;;;;;6.72;48.36;103275.44;4963932;28;45346;-70
2023/02/10 01:22:44;;;;;;;;;114.50;98.50;;;;;6.73;48.37;103266.78;4963721;28;45327;-70
2023/02/10 01:25:09;;;;;;;;;119.50;102.50;;;;;6.76;48.06;103264.28;4963957;28;45375;-70
2023/02/10 01:27:34;;;;;;;;;119.00;105.00;;;;;6.75;48.28;103262.47;4963459;28;45224;-69
2023/02/10 01:30:00;;;;;;;;;115.25;104.25;;;;;6.75;48.42;103261.59;4963744;28;45421;-70
2023/02/10 01:32:25;;;;;;;;;109.75;100.00;;;;;6.79;48.32;103269.66;4963741;28;45377;-69
2023/02/10 01:34:50;;;;;;;;;108.50;101.25;;;;;6.81;48.48;103262.75;4963932;28;45465;-70
2023/02/10 01:37:16;;;;;;;;;102.25;97.50;;;;;6.84;48.42;103272.44;4963370;28;45496;-70
2023/02/10 01:39:41;;;;;;;;;116.75;102.50;;;;;6.86;48.46;103267.28;4963820;28;46741;-70
2023/02/10 01:42:13;;;;;;;;;109.25;95.50;;;;;6.83;48.49;103268.94;4962105;28;45327;-70
2023/02/10 01:44:38;;;;;;;;;107.50;95.75;;;;;6.87;48.59;103269.97;4963614;28;45275;-70
2023/02/10 01:47:03;;;;;;;;;108.00;93.75;;;;;6.86;48.86;103278.63;4963465;28;45211;-69
2023/02/10 01:49:33;;;;;;;;;102.50;93.75;;;;;6.85;48.82;103275.97;4963516;28;45980;-69
2023/02/10 01:52:07;;;;;;;;;115.25;99.50;;;;;6.88;48.73;103278.69;4963217;28;45366;-70
2023/02/10 01:54:38;;;;;;;;;108.75;96.25;;;;;6.85;48.92;103270.72;4963741;28;45402;-70
2023/02/10 01:57:05;;;;;;;;;122.50;105.50;;;;;6.88;48.93;103273.47;4950181;28;45249;-70
2023/02/10 01:59:34;;;;;;;;;116.75;101.50;;;;;6.84;48.80;103261.97;4963300;28;46437;-70
2023/02/10 02:02:06;;;;;;;;;122.25;111.75;;;;;6.87;48.96;103280.41;4963307;28;45414;-69
2023/02/10 02:04:52;;;;;;;;;116.00;103.50;;;;;6.86;49.04;103269.91;4963462;28;45413;-70
2023/02/10 02:07:22;;;;;;;;;126.75;109.00;;;;;6.85;48.94;103270.72;4963047;28;45374;-70
2023/02/10 02:09:48;;;;;;;;;116.00;102.50;;;;;6.86;48.88;103278.63;4963099;28;45235;-70
2023/02/10 02:12:48;;;;;;;;;115.75;106.25;;;;;6.89;48.97;103275.25;4963103;28;45213;-69
2023/02/10 02:15:29;;;;;;;;;110.75;101.75;;;;;6.88;49.03;103276.06;4963310;28;45265;-70
2023/02/10 02:18:00;;;;;;;;;118.75;103.50;;;;;6.86;49.18;103275.13;4963038;28;45252;-69
2023/02/10 02:20:44;;;;;;;;;96.75;95.75;;;;;6.89;49.17;103272.63;4963138;28;45509;-70
2023/02/10 02:23:30;;;;;;;;;107.50;99.75;;;;;6.89;49.09;103277.88;4961606;28;45346;-69
2023/02/10 02:26:26;;;;;;;;;102.00;94.50;;;;;6.87;49.29;103277.81;4962943;28;45249;-70
2023/02/10 02:29:19;;;;;;;;;119.75;102.75;;;;;6.87;49.21;103276.88;4961838;28;46247;-69
2023/02/10 02:32:12;;;;;;;;;109.00;98.50;;;;;6.85;49.44;103278.56;4952663;28;45517;-70
2023/02/10 02:34:46;;;;;;;;;114.50;99.00;;;;;6.83;49.48;103276.78;4962812;28;45335;-70
2023/02/10 02:37:16;;;;;;;;;108.75;98.75;;;;;6.82;49.51;103272.38;4962493;28;45365;-69
2023/02/10 02:39:42;;;;;;;;;100.33;87.67;;;;;6.81;49.20;103273.19;4945375;28;45522;-70
2023/02/10 02:42:18;;;;;;;;;96.75;93.75;;;;;6.77;49.49;103258.22;4962383;28;45240;-70
2023/02/10 02:45:06;;;;;;;;;106.00;93.00;;;;;6.80;49.38;103265.31;4962504;28;45307;-69
2023/02/10 02:47:37;;;;;;;;;102.00;88.33;;;;;6.79;49.67;103264.41;4962068;28;45445;-69
2023/02/10 02:50:16;;;;;;;;;97.75;85.50;;;;;6.79;49.51;103260.91;4962626;28;45377;-69
2023/02/10 02:52:53;;;;;;;;;95.67;86.33;;;;;6.78;49.56;103267.84;4962324;28;45440;-69
2023/02/10 02:55:36;;;;;;;;;107.75;94.75;;;;;6.79;49.87;103267.03;4961245;28;45323;-70
2023/02/10 02:58:49;;;;;;;;;89.50;79.25;;;;;6.79;49.74;103268.75;4960898;28;45330;-69
2023/02/10 03:01:24;;;;;;;;;114.50;100.00;;;;;6.76;49.77;103261.66;4940071;28;45591;-69
2023/02/10 03:03:52;;;;;;;;;108.33;93.33;;;;;6.76;49.75;103264.28;4962246;28;46056;-70
2023/02/10 03:06:17;;;;;;;;;111.25;95.00;;;;;6.74;49.86;103258.13;4962258;28;45510;-69
2023/02/10 03:08:43;;;;;;;;;103.25;91.00;;;;;6.71;50.14;103257.97;4944999;28;45334;-70
2023/02/10 03:11:08;;;;;;;;;102.00;90.25;;;;;6.73;50.05;103256.31;4962235;28;45409;-70
2023/02/10 03:13:34;;;;;;;;;100.00;89.75;;;;;6.74;49.96;103257.19;4944668;28;46706;-69
2023/02/10 03:15:59;;;;;;;;;98.50;87.00;;;;;6.74;50.11;103263.34;4960708;28;45574;-69
2023/02/10 03:18:25;;;;;;;;;107.00;97.00;;;;;6.75;50.03;103266.84;4962278;28;45402;-70
2023/02/10 03:20:50;;;;;;;;;91.33;80.33;;;;;6.76;50.14;103279.97;4961831;28;45265;-70
2023/02/10 03:23:18;;;;;;;;;96.67;83.33;;;;;6.72;50.23;103270.22;4944593;28;46217;-70
2023/02/10 03:25:45;;;;;;;;;95.33;86.67;;;;;6.70;50.05;103271.84;4960631;28;46035;-69
2023/02/10 03:28:10;;;;;;;;;96.67;80.33;;;;;6.73;50.23;103273.69;4960818;28;45339;-68
2023/02/10 03:30:37;;;;;;;;;94.00;84.33;;;;;6.76;50.09;103271.22;4961867;28;45266;-69
2023/02/10 03:33:02;;;;;;;;;91.00;83.00;;;;;6.72;50.11;103278.06;4961890;28;46029;-69
2023/02/10 03:35:28;;;;;;;;;90.33;79.00;;;;;6.75;50.28;103274.66;4961882;28;45299;-69
2023/02/10 03:37:53;;;;;;;;;91.33;84.33;;;;;6.71;50.45;103267.53;4961861;28;45734;-70
2023/02/10 03:40:18;;;;;;;;;98.33;79.00;;;;;6.74;50.38;103275.50;4961582;28;45311;-69
2023/02/10 03:42:44;;;;;;;;;94.67;84.33;;;;;6.71;49.98;103273.66;4960430;28;47159;-69
2023/02/10 03:45:09;;;;;;;;;100.00;89.67;;;;;6.73;50.46;103269.38;4961527;28;45321;-69
2023/02/10 03:47:34;;;;;;;;;93.33;81.33;;;;;6.74;50.45;103268.56;4961948;28;45389;-69
2023/02/10 03:50:00;;;;;;;;;98.00;82.67;;;;;6.74;50.46;103272.88;4961594;28;45370;-70
2023/02/10 03:52:25;;;;;;;;;102.33;89.67;;;;;6.75;50.51;103275.56;4961393;28;46036;-70
2023/02/10 03:54:50;;;;;;;;;93.00;85.67;;;;;6.72;50.31;103269.34;4944101;28;45589;-69
2023/02/10 03:57:17;;;;;;;;;98.67;83.00;;;;;6.72;50.54;103275.44;4961554;28;45410;-69
2023/02/10 03:59:42;;;;;;;;;95.00;82.33;;;;;6.75;50.47;103280.78;4961584;28;45215;-69
2023/02/10 04:02:08;;;;;;;;;91.33;80.33;;;;;6.71;50.42;103281.47;4961512;28;45285;-69
2023/02/10 04:04:33;;;;;;;;;89.67;76.33;;;;;6.75;50.83;103287.75;4961418;28;45228;-69
2023/02/10 04:06:58;;;;;;;;;93.33;81.00;;;;;6.70;50.79;103284.03;4961376;28;45833;-69
2023/02/10 04:09:24;;;;;;;;;91.33;77.67;;;;;6.75;50.57;103285.13;4961383;28;45240;-69
2023/02/10 04:11:49;;;;;;;;;88.33;76.33;;;;;6.70;50.63;103279.69;4961181;28;45203;-69
2023/02/10 04:14:14;;;;;;;;;89.00;71.67;;;;;6.74;50.79;103283.34;4961337;28;45240;-69
2023/02/10 04:16:43;;;;;;;;;90.33;72.33;;;;;6.73;50.77;103286.78;4961321;28;45296;-70
2023/02/10 04:19:08;;;;;;;;;88.33;72.33;;;;;6.74;50.65;103291.19;4943909;28;45474;-69
2023/02/10 04:21:34;;;;;;;;;85.33;70.00;;;;;6.74;50.66;103288.56;4943276;28;46979;-69
2023/02/10 04:23:59;;;;;;;;;88.00;77.00;;;;;6.72;50.79;103288.50;4961151;28;45311;-70
2023/02/10 04:26:24;;;;;;;;;86.67;76.33;;;;;6.73;51.04;103289.38;4961057;28;45244;-69
2023/02/10 04:28:50;;;;;;;;;85.00;68.00;;;;;6.71;50.79;103289.31;4943654;28;45373;-69
2023/02/10 04:31:16;;;;;;;;;85.00;67.00;;;;;6.66;50.79;103281.28;4960804;28;45362;-69
2023/02/10 04:33:41;;;;;;;;;86.33;72.33;;;;;6.69;50.93;103290.97;4961151;28;45633;-70
2023/02/10 04:36:07;;;;;;;;;84.00;63.33;;;;;6.69;51.16;103295.31;4959471;28;45386;-70
2023/02/10 04:38:32;;;;;;;;;88.33;73.33;;;;;6.64;50.84;103292.50;4961257;28;45523;-69
2023/02/10 04:40:58;;;;;;;;;90.00;74.00;;;;;6.64;50.89;103295.09;4960580;28;46156;-69
2023/02/10 04:43:23;;;;;;;;;91.00;75.67;;;;;6.63;51.17;103301.19;4959629;28;45235;-70
2023/02/10 04:45:48;;;;;;;;;86.67;68.33;;;;;6.63;51.19;103306.41;4960812;28;45556;-70
2023/02/10 04:48:14;;;;;;;;;86.00;70.67;;;;;6.62;51.00;103299.41;4960799;28;45231;-69
2023/02/10 04:50:40;;;;;;;;;86.00;71.67;;;;;6.64;51.09;103302.94;4960364;28;46441;-69
2023/02/10 04:53:06;;;;;;;;;84.33;66.67;;;;;6.61;51.04;103290.66;4961177;28;45324;-69
2023/02/10 04:55:32;;;;;;;;;81.67;66.33;;;;;6.59;51.11;103284.47;4964352;28;45441;-69
2023/02/10 04:57:58;;;;;;;;;85.00;67.00;;;;;6.58;51.65;103289.63;4963975;28;45458;-69
2023/02/10 05:00:23;;;;;;;;;82.33;68.00;;;;;6.60;51.47;103293.19;4964097;28;46233;-69
2023/02/10 05:02:49;;;;;;;;;83.67;64.00;;;;;6.59;51.33;103289.72;4964245;28;45286;-70
2023/02/10 05:05:14;;;;;;;;;86.00;64.67;;;;;6.62;51.40;103295.06;4964225;28;45299;-69
2023/02/10 05:07:40;;;;;;;;;82.33;65.33;;;;;6.60;51.37;103293.19;4963786;28;45379;-70
2023/02/10 05:10:06;;;;;;;;;84.00;68.33;;;;;6.61;51.47;103301.09;4946456;28;47032;-69
2023/02/10 05:12:48;;;;;;;;;83.33;61.00;;;;;6.59;51.64;103294.94;4963891;28;45212;-69
2023/02/10 05:15:17;;;;;;;;;81.00;61.00;;;;;6.59;51.59;103291.41;4962813;28;45489;-70
2023/02/10 05:17:42;;;;;;;;;76.33;59.33;;;;;6.56;51.54;103289.56;4963876;28;45469;-69
2023/02/10 05:20:11;;;;;;;;;77.33;60.33;;;;;6.61;51.66;103301.09;4946381;28;47266;-69
2023/02/10 05:22:38;;;;;;;;;80.00;60.67;;;;;6.61;51.67;103315.91;4963418;28;45397;-69
2023/02/10 05:25:04;;;;;;;;;83.00;61.33;;;;;6.63;51.54;103322.09;4946234;28;45338;-69
2023/02/10 05:27:29;;;;;;;;;77.00;59.67;;;;;6.60;51.32;103308.88;4945999;28;45526;-69
2023/02/10 05:29:54;;;;;;;;;81.00;59.33;;;;;6.64;51.48;103316.00;4963544;28;46053;-70
2023/02/10 05:32:20;;;;;;;;;75.67;59.67;;;;;6.61;51.78;103315.91;4946045;28;45243;-70
2023/02/10 05:34:45;;;;;;;;;75.67;58.67;;;;;6.62;51.91;103312.47;4964319;28;45536;-70
2023/02/10 05:37:13;;;;;;;;;80.00;62.00;;;;;6.60;51.73;103320.25;4963600;28;45240;-70
2023/02/10 05:39:39;;;;;;;;;79.00;60.67;;;;;6.62;51.80;103320.31;4963664;28;45373;-70
2023/02/10 05:42:05;;;;;;;;;74.00;60.00;;;;;6.61;51.74;103323.72;4961767;28;45307;-69
2023/02/10 05:44:31;;;;;;;;;77.33;59.67;;;;;6.60;52.03;103322.84;4962329;28;45323;-70
2023/02/10 05:46:57;;;;;;;;;78.67;60.00;;;;;6.60;52.02;103322.84;4963523;28;45467;-69
2023/02/10 05:49:22;;;;;;;;;77.00;60.00;;;;;6.60;52.05;103332.41;4961663;28;45664;-69
2023/02/10 05:51:48;;;;;;;;;73.33;58.67;;;;;6.58;51.87;103323.59;4945810;28;45368;-69
2023/02/10 05:54:13;;;;;;;;;75.33;58.00;;;;;6.62;51.95;103335.97;4963573;28;45706;-70
2023/02/10 05:56:39;;;;;;;;;77.67;60.00;;;;;6.62;51.99;103331.63;4963141;28;45549;-71
2023/02/10 05:59:05;;;;;;;;;83.00;60.67;;;;;6.62;52.02;103331.63;4961950;28;47086;-70
2023/02/10 06:01:31;;;;;;;;;77.67;60.00;;;;;6.63;52.05;103345.63;4963625;28;45435;-70
2023/02/10 06:03:56;;;;;;;;;75.67;59.33;;;;;6.62;51.97;103341.22;4946045;28;45185;-70
2023/02/10 06:06:25;;;;;;;;;83.33;61.00;;;;;6.63;52.11;103343.00;4961918;28;45369;-70
2023/02/10 06:08:51;;;;;;;;;77.67;61.33;;;;;6.56;52.10;103327.88;4945816;28;47056;-71
2023/02/10 06:11:16;;;;;;;;;80.67;62.33;;;;;6.65;52.25;103346.56;4961571;28;45260;-72
2023/02/10 06:13:45;;;;;;;;;77.33;57.67;;;;;6.64;51.99;103342.16;4963160;28;45428;-72
2023/02/10 06:16:11;;;;;;;;;74.33;59.33;;;;;6.67;52.17;103347.53;4962946;28;45361;-71
2023/02/10 06:18:37;;;;;;;;;75.67;59.00;;;;;6.67;52.26;103347.53;4962984;28;45315;-69
2023/02/10 06:21:02;;;;;;;;;73.67;56.00;;;;;6.70;52.12;103341.53;4962672;28;45251;-71
2023/02/10 06:23:28;;;;;;;;;76.67;59.67;;;;;6.72;52.34;103355.56;4963186;28;45424;-71
2023/02/10 06:25:54;;;;;;;;;80.67;60.33;;;;;6.70;51.94;103350.25;4945251;28;45266;-73
2023/02/10 06:28:28;;;;;;;;;81.33;63.67;;;;;6.74;52.28;103366.97;4945015;28;47008;-70
2023/02/10 06:30:55;;;;;;;;;78.67;60.33;;;;;6.74;52.16;103360.03;4945223;28;45376;-71
2023/02/10 06:33:20;;;;;;;;;86.67;72.33;;;;;6.76;52.29;103349.66;4957707;28;45225;-70
2023/02/10 06:35:46;;;;;;;;;81.67;66.33;;;;;6.74;52.42;103343.44;4946396;28;45600;-74
2023/02/10 06:38:12;;;;;;;;;84.33;66.67;;;;;6.79;52.20;103345.44;4961567;28;46726;-73
2023/02/10 06:40:38;;;;;;;;;85.00;70.00;;;;;6.75;52.22;103350.47;4948314;28;45487;-73
2023/02/10 06:43:04;;;;;;;;;93.00;77.67;;;;;6.80;52.25;103347.19;4945090;28;45297;-71
2023/02/10 06:45:30;;;;;;;;;74.67;58.67;;;;;6.81;52.42;103349.00;4962428;28;45454;-71
2023/02/10 06:47:58;;;;;;;;;83.00;67.67;;;;;6.80;52.17;103347.19;4962173;28;45391;-65
2023/02/10 06:50:24;;;;;;;;;80.33;65.00;;;;;6.82;52.39;103339.47;4947749;28;45356;-72
2023/02/10 06:52:49;;;;;;;;;84.00;66.33;;;;;6.83;52.20;103344.75;4941070;28;45489;-71
2023/02/10 06:55:15;;;;;;;;;84.67;69.00;;;;;6.78;52.44;103338.44;4962056;28;45514;-73
2023/02/10 06:57:40;;;;;;;;;86.67;67.00;;;;;6.79;52.26;103344.53;4961861;28;46190;-73
2023/02/10 07:00:09;;;;;;;;;80.33;64.33;;;;;6.85;52.37;103351.75;4944483;28;45762;-72
2023/02/10 07:02:34;;;;;;;;;77.00;59.33;;;;;6.80;52.43;103352.44;4962067;28;45355;-71
2023/02/10 07:05:00;;;;;;;;;78.67;60.00;;;;;6.79;52.33;103345.44;4962292;28;45456;-71
2023/02/10 07:07:35;;;;;;;;;68.67;56.33;;;;;6.76;52.61;103345.28;4961018;28;46340;-69
2023/02/10 07:10:00;;;;;;;;;81.33;64.67;;;;;6.77;52.44;103351.44;4962143;28;45319;-69
2023/02/10 07:12:26;;;;;;;;;80.00;61.00;;;;;6.75;52.70;103347.84;4961818;28;45357;-69
2023/02/10 07:14:52;;;;;;;;;80.67;60.33;;;;;6.75;52.61;103361.78;4961468;28;45453;-71
2023/02/10 07:17:17;;;;;;;;;76.33;59.00;;;;;6.75;52.68;103363.53;4963146;28;45417;-70
2023/02/10 07:19:43;;;;;;;;;76.33;59.33;;;;;6.66;52.56;103357.06;4961963;28;45307;-70
2023/02/10 07:22:11;;;;;;;;;79.33;60.67;;;;;6.72;52.50;103361.69;4961929;28;45183;-71
2023/02/10 07:24:40;;;;;;;;;85.33;66.00;;;;;6.78;52.33;103382.88;4944534;28;45442;-74
2023/02/10 07:27:05;;;;;;;;;82.67;64.00;;;;;6.79;52.50;103373.28;4961727;28;45457;-73
2023/02/10 07:29:31;;;;;;;;;81.00;63.67;;;;;6.79;52.46;103375.91;4961755;28;45297;-73
2023/02/10 07:31:59;;;;;;;;;80.00;61.67;;;;;6.76;52.41;103374.03;4962119;28;45464;-72
2023/02/10 07:34:26;;;;;;;;;80.33;60.33;;;;;6.78;52.59;103385.47;4966204;28;45169;-72
2023/02/10 07:36:55;;;;;;;;;73.67;58.33;;;;;6.75;52.19;103382.72;4961485;28;45993;-73
2023/02/10 07:39:24;;;;;;;;;80.33;62.00;;;;;6.80;52.66;103391.63;4961866;28;45290;-73
2023/02/10 07:41:50;;;;;;;;;78.00;60.00;;;;;6.78;52.54;103382.88;4944239;28;45402;-73
2023/02/10 07:44:15;;;;;;;;;81.67;62.33;;;;;6.79;52.48;103389.88;4943792;28;45384;-72
2023/02/10 07:46:41;;;;;;;;;79.67;61.33;;;;;6.76;52.58;103381.00;4961606;28;46162;-72
2023/02/10 07:49:06;;;;;;;;;79.00;60.00;;;;;6.79;52.47;103391.59;4961427;28;45444;-73
2023/02/10 07:51:32;;;;;;;;;80.00;59.33;;;;;6.75;52.47;103395.78;4960316;28;45455;-72
2023/02/10 07:53:57;;;;;;;;;80.33;59.33;;;;;6.76;52.63;103394.97;4974504;28;45408;-72
2023/02/10 07:56:23;;;;;;;;;85.00;65.67;;;;;6.76;52.56;103400.19;4959999;28;46959;-73
2023/02/10 07:58:48;;;;;;;;;82.67;64.67;;;;;6.80;52.65;103414.28;4943947;28;45761;-72
2023/02/10 08:01:13;;;;;;;;;80.33;62.33;;;;;6.79;52.47;103412.50;4961745;28;45338;-72
2023/02/10 08:03:39;;;;;;;;;81.33;62.33;;;;;6.79;52.42;103416.03;4960190;28;45576;-72
2023/02/10 08:06:05;;;;;;;;;81.67;65.00;;;;;6.83;52.74;103420.53;4961084;28;45505;-72
2023/02/10 08:08:30;;;;;;;;;80.67;64.00;;;;;6.79;52.44;103416.03;4961172;28;45495;-72
2023/02/10 08:10:56;;;;;;;;;82.00;65.33;;;;;6.82;52.65;103420.50;4961605;28;45228;-73
2023/02/10 08:13:22;;;;;;;;;85.67;63.33;;;;;6.85;52.57;103411.88;4959803;28;45565;-72
2023/02/10 08:15:48;;;;;;;;;81.00;61.67;;;;;6.82;52.45;103418.75;4959874;28;47057;-72
2023/02/10 08:18:13;;;;;;;;;83.33;62.33;;;;;6.86;52.33;103426.75;4943618;28;45220;-72
2023/02/10 08:20:42;;;;;;;;;85.00;61.67;;;;;6.79;52.54;103409.88;4961247;28;45342;-72
2023/02/10 08:23:13;;;;;;;;;87.67;66.67;;;;;6.86;52.66;103421.53;4943629;28;45359;-72
2023/02/10 08:25:39;;;;;;;;;78.67;60.00;;;;;6.87;52.47;103416.34;4943756;28;47191;-72
2023/02/10 08:28:04;;;;;;;;;73.33;57.33;;;;;6.83;52.63;103404.88;4959648;28;45187;-72
2023/02/10 08:30:30;;;;;;;;;76.00;59.33;;;;;6.81;52.67;103398.66;4961185;28;45278;-73
2023/02/10 08:32:55;;;;;;;;;79.33;61.00;;;;;6.83;52.71;103419.66;4961112;28;45355;-72
2023/02/10 08:35:20;;;;;;;;;78.00;59.67;;;;;6.86;52.72;103437.22;4960568;28;46283;-73
2023/02/10 08:37:45;;;;;;;;;79.33;60.33;;;;;6.87;52.60;103444.19;4943407;28;45387;-72
2023/02/10 08:40:11;;;;;;;;;75.33;55.33;;;;;6.87;52.83;103441.59;4961068;28;45429;-73
2023/02/10 08:42:36;;;;;;;;;75.00;59.67;;;;;6.87;52.69;103445.09;4959424;28;45469;-72
2023/02/10 08:45:03;;;;;;;;;74.67;58.67;;;;;6.89;52.93;103453.00;4960586;28;46445;-71
2023/02/10 08:47:28;;;;;;;;;73.00;56.00;;;;;6.84;52.75;103450.19;4943255;28;45459;-71
2023/02/10 08:49:54;;;;;;;;;74.33;58.67;;;;;6.84;52.60;103444.94;4961119;28;45300;-71
2023/02/10 08:52:22;;;;;;;;;77.00;59.67;;;;;6.83;52.73;103449.31;4960407;28;45254;-71
2023/02/10 08:54:47;;;;;;;;;78.33;59.33;;;;;6.86;52.75;103445.94;4960716;28;45334;-71
2023/02/10 08:57:13;;;;;;;;;75.00;58.33;;;;;6.85;52.66;103438.03;4959180;28;45413;-71
2023/02/10 08:59:38;;;;;;;;;67.33;53.00;;;;;6.83;52.91;103433.63;4961139;28;45291;-72
2023/02/10 09:02:04;;;;;;;;;75.33;58.00;;;;;6.81;52.86;103437.88;4960547;28;45180;-71
2023/02/10 09:04:29;;;;;;;;;78.33;57.00;;;;;6.82;53.01;103447.50;4960610;28;45160;-71
2023/02/10 09:06:55;;;;;;;;;75.67;60.00;;;;;6.86;53.08;103445.03;4942678;28;45325;-72
2023/02/10 09:09:25;;;;;;;;;77.67;59.67;;;;;6.83;52.73;103451.91;4960774;28;45247;-71
2023/02/10 09:11:52;;;;;;;;;71.33;57.33;;;;;6.85;52.81;103454.59;4960412;28;45248;-71
2023/02/10 09:14:17;;;;;;;;;74.00;59.00;;;;;6.86;52.79;103450.28;4942918;28;46186;-71
2023/02/10 09:16:43;;;;;;;;;71.67;58.00;;;;;6.88;52.77;103446.00;4959039;28;45308;-72
2023/02/10 09:19:09;;;;;;;;;78.67;62.67;;;;;6.87;52.98;103436.34;4959343;28;45240;-72
2023/02/10 09:21:34;;;;;;;;;78.67;61.33;;;;;6.91;52.73;103446.16;4942608;28;45490;-71
2023/02/10 09:23:59;;;;;;;;;77.33;60.00;;;;;6.91;52.90;103436.56;4960234;28;45317;-71
2023/02/10 09:26:25;;;;;;;;;82.00;64.67;;;;;6.91;52.95;103440.91;4959041;28;45835;-71
2023/02/10 09:28:51;;;;;;;;;81.00;61.00;;;;;6.91;52.72;103435.69;4942966;28;45364;-71
2023/02/10 09:31:16;;;;;;;;;75.67;59.67;;;;;6.92;53.06;103437.47;4960326;28;45395;-71
2023/02/10 09:33:43;;;;;;;;;73.00;59.33;;;;;6.95;52.96;103424.53;4943051;28;48145;-71
2023/02/10 09:36:15;;;;;;;;;71.67;56.00;;;;;6.95;52.91;103422.78;4959931;28;45338;-72
2023/02/10 09:38:41;;;;;;;;;75.00;60.00;;;;;6.96;53.01;103442.00;4961443;28;45494;-72
2023/02/10 09:41:33;;;;;;;;;76.67;59.00;;;;;6.96;52.88;103434.16;4961951;28;45552;-72
2023/02/10 09:44:20;;;;;;;;;78.67;60.00;;;;;6.97;53.14;103436.84;4937961;28;45560;-72
2023/02/10 09:47:08;;;;;;;;;78.67;58.00;;;;;7.00;52.95;103434.34;4962045;28;45431;-72
2023/02/10 09:50:05;;;;;;;;;72.33;56.67;;;;;7.04;53.09;103440.59;4963688;28;45427;-72
2023/02/10 09:52:37;;;;;;;;;79.67;60.67;;;;;7.07;52.89;103445.97;4963165;28;45391;-72
2023/02/10 09:55:13;;;;;;;;;81.33;62.00;;;;;7.10;53.11;103450.44;4963374;28;45354;-73
2023/02/10 09:57:47;;;;;;;;;78.00;60.00;;;;;7.14;52.91;103449.75;4963129;28;45323;-72
2023/02/10 10:00:22;;;;;;;;;78.33;61.33;;;;;7.18;52.91;103438.59;4963417;28;45344;-72
2023/02/10 10:02:54;;;;;;;;;79.00;59.33;;;;;7.20;53.09;103436.06;4963331;28;45389;-72
2023/02/10 10:05:30;;;;;;;;;72.00;56.33;;;;;7.21;52.88;103430.88;4962915;28;45370;-72
2023/02/10 10:07:56;;;;;;;;;78.33;61.33;;;;;7.29;52.96;103447.78;4963186;28;45299;-72
2023/02/10 10:10:31;;;;;;;;;79.33;58.33;;;;;7.32;52.90;103441.81;4963135;28;45338;-73
2023/02/10 10:12:57;;;;;;;;;77.67;59.67;;;;;7.38;53.12;103451.63;4945607;28;46101;-72
2023/02/10 10:15:31;;;;;;;;;82.00;70.33;;;;;7.39;53.03;103443.84;4945141;28;47748;-72
2023/02/10 10:18:32;;;;;;;;;83.00;69.00;;;;;7.45;53.12;103448.44;4962948;28;45413;-73
2023/02/10 10:21:10;;;;;;;;;74.00;56.00;;;;;7.51;53.25;103453.94;4937622;28;45455;-72
2023/02/10 10:23:57;;;;;;;;;72.67;58.67;;;;;7.57;53.11;103450.69;4962956;28;45249;-73
2023/02/10 10:26:45;;;;;;;;;71.50;56.00;;;;;7.64;53.25;103450.09;4958349;28;45999;-72
2023/02/10 10:29:25;;;;;;;;;75.33;57.33;;;;;7.70;52.98;103455.59;4962728;28;45259;-72
2023/02/10 10:32:06;;;;;;;;;69.00;52.75;;;;;7.75;52.85;103454.06;4933250;28;45269;-72
2023/02/10 10:34:35;;;;;;;;;69.75;53.00;;;;;7.80;52.85;103447.28;4944470;28;45444;-72
2023/02/10 10:37:04;;;;;;;;;66.00;53.25;;;;;7.90;52.82;103442.41;4961155;28;45585;-72
2023/02/10 10:39:41;;;;;;;;;67.25;51.50;;;;;7.96;52.96;103451.41;4945171;28;46026;-72
2023/02/10 10:42:36;;;;;;;;;64.25;51.00;;;;;8.05;53.35;103460.47;4962783;28;45349;-72
2023/02/10 10:45:27;;;;;;;;;66.50;49.00;;;;;8.12;53.03;103460.75;4956666;28;45706;-72
2023/02/10 10:48:07;;;;;;;;;62.50;50.50;;;;;8.26;53.03;103463.03;4961821;28;45607;-72
2023/02/10 10:50:33;;;;;;;;;63.50;50.00;;;;;8.30;53.24;103457.06;4959917;28;45324;-72
2023/02/10 10:53:15;;;;;;;;;50.75;42.50;;;;;8.38;53.05;103453.03;4962923;28;45351;-72
2023/02/10 10:55:46;;;;;;;;;61.00;48.50;;;;;8.50;53.06;103464.84;4962443;28;45260;-72
2023/02/10 10:58:35;;;;;;;;;64.25;50.50;;;;;8.62;52.98;103467.94;4962213;28;46678;-72
2023/02/10 11:01:02;;;;;;;;;64.00;50.00;;;;;8.68;53.22;103449.81;4961155;28;45300;-72
2023/02/10 11:03:28;;;;;;;;;59.75;48.00;;;;;8.74;53.08;103450.03;4944986;28;45193;-73
2023/02/10 11:06:06;;;;;;;;;63.25;51.25;;;;;8.84;53.05;103455.63;4960734;28;45610;-72
2023/02/10 11:08:43;;;;;;;;;64.25;49.75;;;;;8.92;53.06;103447.19;4962084;28;46330;-73
2023/02/10 11:11:14;;;;;;;;;68.50;53.00;;;;;8.98;53.07;103451.78;4962453;28;45331;-72
2023/02/10 11:13:48;;;;;;;;;61.50;49.25;;;;;9.08;53.08;103446.00;4962290;28;45164;-72
2023/02/10 11:16:15;;;;;;;;;69.75;53.00;;;;;9.14;53.21;103436.56;4937472;28;45546;-72
2023/02/10 11:18:53;;;;;;;;;60.00;48.75;;;;;9.16;53.03;103430.53;4966695;28;45761;-71
2023/02/10 11:21:19;;;;;;;;;62.25;49.25;;;;;9.24;53.03;103430.78;4950480;28;45331;-66
2023/02/10 11:23:52;;;;;;;;;62.00;49.00;;;;;9.30;53.11;103425.75;4944571;28;45349;-70